Redwood City, CA (94064)

04:32 AM PDT die 02o September, anno 2014 (GMT -0700)
Sterling Heights | Change Station
CLOSE
Current Station
Personal Weather Stations
Location: Redwood City, CA
Elevation: 134 ft
Nearby Weather Stations

Elev 134 ft 37.46 °N, 122.25 °W | Updated 12 seconds ago

Clear
Serena
58.5 °F
Feels Like 58.5 °F
N
0.0
Ventus Variabilis Ventus from Magis Auster quam Eurus
Gusts 0.0 mph

Hodie
High -- | Low -- °F
--% Chance of Precip.
Yesterday
High -- | Low -- °F
Precip. -- in
6:40 AM 7:36 PM
Waxing Crescent, 50% visible
Pressio 29.80 in
Visibilitas 10.0 milia passuum
Clouds Serena
Frigus in quo Ros apparet 56 °F
Umor 90%
Rainfall 0.00 in
Snow Depth Not available.
UV 0 out of 12
Pollen 7.30 out of 12
Ozone Good
PM2.5 Moderate
Flu Activity Not available.
METAR KSQL 021110Z AUTO 31004KT 10SM CLR 17/13 A2980 RMK AO2

More Conditions Fewer Conditions

Pressio 29.80 in
Visibilitas 10.0 milia passuum
Clouds Serena
Frigus in quo Ros apparet 56 °F
Umor 90%
Rainfall 0.00 in
Snow Depth Not available.
UV 0 out of 12
Pollen 7.30 out of 12
Ozone Good
PM2.5 Moderate
Flu Activity Not available.
METAR KSQL 021110Z AUTO 31004KT 10SM CLR 17/13 A2980 RMK AO2

More Conditions Fewer Conditions

10-Day Weather Forecast

Almanac

Astronomy

Sep. 02, 2014 Rise Set
Actual Time 6:40 AM PDT 7:36 PM PDT
Civil Twilight 6:13 AM PDT 8:02 PM PDT
Nautical Twilight 5:41 AM PDT 8:34 PM PDT
Astronomical Twilight 5:09 AM PDT 9:07 PM PDT
Moon 2:21 PM PDT Nulla Occasus Lunae
Length Of Visible Light 13h 49m
Length of Day
12h 56m
Tomorrow will be 2m 19s shorter.
Waxing Crescent, 50% of the Moon is Illuminated
Hodie
Waxing Crescent
Sep 8
Full
Sep 15
Last Quarter
Sep 24
New
Oct 1
First Quarter

Today's Extremes

State Highs State Lows

Community

WunderPhotos

Upload Photos

1,749,621 photos uploaded!

WunderBlogs® & News

By Dr. Jeff Masters
Director of Meteorology, Weather Underground
By Kari Strenfel
Meteorologist, Weather Underground
By Christopher C. Burt
Weather Historian, Weather Underground
September 2, 2014
September 2, 2014
September 2, 2014

Nearby

Air Quality

  Air Quality AQ Index Pollutant
Yesterday Moderate
PM2.5
Current Moderate
PM2.5
Current Good
OZONE
Die Martis Good
OZONE
Die Mercurii Good
OZONE
Die Jovis Good
OZONE
Die Veneris Good
OZONE

Snow Depth

Station Depth Elevation
Blue Lakes 0 in 8000 ft
Forestdale Creek 0 in 8029 ft
Echo Peak 0 in 7800 ft
Leavitt Lake 0 in 9400 ft
Rubicon #2 0 in 7500 ft

Earthquake Activity

City Distance Mag. Time & Date
Yountville, California 62 milia passuum 2.6 1:15 PM PDT
2014-09-01
Gilroy, California 54 milia passuum 3.5 9:10 AM PDT
2014-09-01
Green Valley, California 54 milia passuum 2.5 6:37 AM PDT
2014-08-31
Napa, California 53 milia passuum 3.2 1:56 AM PDT
2014-08-31
Minimum magnitude displayed is 2.5.

Coastal Water Temperatures

Locus Calor
No Stations Reporting

Nearby Weather Stations